sensor_id;sensor_type;location;lat;lon;timestamp;pressure;altitude;pressure_sealevel;temperature;humidity
38026;BME280;23836;48.430;9.888;2022-08-21T00:00:49;95240.16;;;16.13;91.77
38026;BME280;23836;48.430;9.888;2022-08-21T00:05:45;95187.34;;;15.83;91.63
38026;BME280;23836;48.430;9.888;2022-08-21T00:10:37;95139.91;;;15.52;91.56
38026;BME280;23836;48.430;9.888;2022-08-21T00:15:29;95266.19;;;16.28;90.79
38026;BME280;23836;48.430;9.888;2022-08-21T00:20:22;95260.56;;;16.09;91.69
38026;BME280;23836;48.430;9.888;2022-08-21T00:25:13;95258.66;;;16.25;92.31
38026;BME280;23836;48.430;9.888;2022-08-21T00:30:06;95199.94;;;15.87;90.06
38026;BME280;23836;48.430;9.888;2022-08-21T00:34:57;95185.47;;;15.78;90.28
38026;BME280;23836;48.430;9.888;2022-08-21T00:39:47;95265.66;;;16.21;88.04
38026;BME280;23836;48.430;9.888;2022-08-21T00:44:38;95268.09;;;16.07;89.59
38026;BME280;23836;48.430;9.888;2022-08-21T00:49:28;95166.22;;;15.45;89.26
38026;BME280;23836;48.430;9.888;2022-08-21T00:54:21;95135.13;;;15.24;91.35
38026;BME280;23836;48.430;9.888;2022-08-21T00:59:12;95243.41;;;16.00;89.26
38026;BME280;23836;48.430;9.888;2022-08-21T01:04:03;95188.19;;;15.63;89.74
38026;BME280;23836;48.430;9.888;2022-08-21T01:08:53;95198.38;;;15.56;88.60
38026;BME280;23836;48.430;9.888;2022-08-21T01:13:44;95165.97;;;15.11;86.91
38026;BME280;23836;48.430;9.888;2022-08-21T01:18:36;95229.25;;;15.58;90.09
38026;BME280;23836;48.430;9.888;2022-08-21T01:23:27;95178.03;;;15.29;90.32
38026;BME280;23836;48.430;9.888;2022-08-21T01:28:19;95127.63;;;15.00;90.41
38026;BME280;23836;48.430;9.888;2022-08-21T01:33:10;95097.63;;;14.83;88.74
38026;BME280;23836;48.430;9.888;2022-08-21T01:38:00;95092.28;;;14.67;89.79
38026;BME280;23836;48.430;9.888;2022-08-21T01:42:51;95188.50;;;15.25;89.29
38026;BME280;23836;48.430;9.888;2022-08-21T01:47:43;95224.94;;;15.57;89.23
38026;BME280;23836;48.430;9.888;2022-08-21T01:52:34;95221.47;;;15.51;89.18
38026;BME280;23836;48.430;9.888;2022-08-21T06:07:58;95222.00;;;15.43;91.04
38026;BME280;23836;48.430;9.888;2022-08-21T06:12:53;95235.94;;;15.56;90.55
38026;BME280;23836;48.430;9.888;2022-08-21T06:17:44;95259.53;;;16.05;90.66
38026;BME280;23836;48.430;9.888;2022-08-21T06:22:34;95195.13;;;15.74;90.26
38026;BME280;23836;48.430;9.888;2022-08-21T06:27:24;95239.31;;;16.28;92.35
38026;BME280;23836;48.430;9.888;2022-08-21T06:32:15;95192.31;;;16.26;94.63
38026;BME280;23836;48.430;9.888;2022-08-21T06:37:05;95249.19;;;16.98;92.54
38026;BME280;23836;48.430;9.888;2022-08-21T06:41:56;95257.59;;;17.31;91.18
38026;BME280;23836;48.430;9.888;2022-08-21T06:46:46;95135.84;;;17.15;86.26
38026;BME280;23836;48.430;9.888;2022-08-21T06:51:37;95254.47;;;18.12;84.13
38026;BME280;23836;48.430;9.888;2022-08-21T06:56:27;95202.63;;;17.96;83.31
38026;BME280;23836;48.430;9.888;2022-08-21T07:01:21;95238.25;;;18.60;82.63
38026;BME280;23836;48.430;9.888;2022-08-21T07:06:13;95245.19;;;19.10;80.98
38026;BME280;23836;48.430;9.888;2022-08-21T07:11:08;95242.53;;;19.42;78.94
38026;BME280;23836;48.430;9.888;2022-08-21T07:15:59;95231.31;;;19.68;78.99
38026;BME280;23836;48.430;9.888;2022-08-21T07:20:50;95192.66;;;19.87;78.23
38026;BME280;23836;48.430;9.888;2022-08-21T07:25:40;95211.69;;;20.37;76.21
38026;BME280;23836;48.430;9.888;2022-08-21T07:30:31;95244.69;;;20.90;75.85
38026;BME280;23836;48.430;9.888;2022-08-21T07:35:22;95234.25;;;21.56;75.01
38026;BME280;23836;48.430;9.888;2022-08-21T07:40:13;95234.72;;;22.12;72.32
38026;BME280;23836;48.430;9.888;2022-08-21T07:45:04;95173.19;;;22.21;78.83
38026;BME280;23836;48.430;9.888;2022-08-21T07:49:54;95201.75;;;22.68;73.46
38026;BME280;23836;48.430;9.888;2022-08-21T07:54:45;95175.44;;;22.86;70.45
38026;BME280;23836;48.430;9.888;2022-08-21T07:59:35;95215.97;;;23.78;67.59
38026;BME280;23836;48.430;9.888;2022-08-21T08:04:26;95181.50;;;24.09;64.09
38026;BME280;23836;48.430;9.888;2022-08-21T08:09:16;95187.50;;;24.62;59.67
38026;BME280;23836;48.430;9.888;2022-08-21T08:14:06;95209.31;;;25.25;58.09
38026;BME280;23836;48.430;9.888;2022-08-21T08:18:57;95202.06;;;25.84;54.26
38026;BME280;23836;48.430;9.888;2022-08-21T08:23:48;95200.56;;;26.57;50.66
38026;BME280;23836;48.430;9.888;2022-08-21T08:28:38;95203.97;;;27.03;50.79
38026;BME280;23836;48.430;9.888;2022-08-21T08:33:29;95141.56;;;27.62;47.31
38026;BME280;23836;48.430;9.888;2022-08-21T08:38:22;95191.59;;;28.90;42.93
38026;BME280;23836;48.430;9.888;2022-08-21T08:43:13;95191.75;;;29.52;43.15
38026;BME280;23836;48.430;9.888;2022-08-21T08:48:08;95144.84;;;29.38;39.80
38026;BME280;23836;48.430;9.888;2022-08-21T08:53:04;95142.53;;;29.59;42.68
38026;BME280;23836;48.430;9.888;2022-08-21T08:57:56;95183.72;;;30.29;41.45
38026;BME280;23836;48.430;9.888;2022-08-21T09:02:51;95111.28;;;30.60;39.75
38026;BME280;23836;48.430;9.888;2022-08-21T09:08:00;95179.88;;;31.44;36.98
38026;BME280;23836;48.430;9.888;2022-08-21T09:23:36;95176.97;;;30.99;34.37
38026;BME280;23836;48.430;9.888;2022-08-21T09:28:36;95172.84;;;30.86;38.18
38026;BME280;23836;48.430;9.888;2022-08-21T09:33:26;95112.34;;;32.29;36.56
38026;BME280;23836;48.430;9.888;2022-08-21T09:43:23;95164.41;;;34.86;33.32
38026;BME280;23836;48.430;9.888;2022-08-21T09:48:19;95152.16;;;36.46;31.42
38026;BME280;23836;48.430;9.888;2022-08-21T09:53:22;95123.97;;;35.31;31.64
38026;BME280;23836;48.430;9.888;2022-08-21T09:58:13;95124.25;;;37.05;29.64
38026;BME280;23836;48.430;9.888;2022-08-21T10:03:14;95147.16;;;36.75;32.07
38026;BME280;23836;48.430;9.888;2022-08-21T10:08:16;95119.00;;;38.04;29.74
38026;BME280;23836;48.430;9.888;2022-08-21T10:18:27;95137.19;;;38.08;26.23
38026;BME280;23836;48.430;9.888;2022-08-21T10:44:08;95141.19;;;31.26;39.39
38026;BME280;23836;48.430;9.888;2022-08-21T10:49:27;95139.03;;;33.57;30.39
38026;BME280;23836;48.430;9.888;2022-08-21T10:59:28;95121.19;;;36.96;25.50
38026;BME280;23836;48.430;9.888;2022-08-21T11:09:40;95117.75;;;35.06;29.35
38026;BME280;23836;48.430;9.888;2022-08-21T11:15:06;95108.38;;;38.49;27.45
38026;BME280;23836;48.430;9.888;2022-08-21T11:20:08;95107.91;;;39.75;24.41
38026;BME280;23836;48.430;9.888;2022-08-21T11:25:22;95102.13;;;39.09;26.04
38026;BME280;23836;48.430;9.888;2022-08-21T11:30:16;95067.94;;;37.08;26.83
38026;BME280;23836;48.430;9.888;2022-08-21T11:40:31;95092.78;;;39.76;21.90
38026;BME280;23836;48.430;9.888;2022-08-21T11:45:55;95049.19;;;38.01;24.49
38026;BME280;23836;48.430;9.888;2022-08-21T11:50:46;95075.13;;;33.30;29.45
38026;BME280;23836;48.430;9.888;2022-08-21T11:55:49;95089.00;;;28.68;34.00
38026;BME280;23836;48.430;9.888;2022-08-21T12:00:47;95050.38;;;27.26;36.51
38026;BME280;23836;48.430;9.888;2022-08-21T12:05:42;95033.91;;;26.65;35.70
38026;BME280;23836;48.430;9.888;2022-08-21T12:10:37;95080.41;;;26.28;39.18
38026;BME280;23836;48.430;9.888;2022-08-21T12:15:29;95046.53;;;25.22;38.32
38026;BME280;23836;48.430;9.888;2022-08-21T12:25:16;95072.00;;;28.97;32.44
38026;BME280;23836;48.430;9.888;2022-08-21T12:30:22;95018.75;;;28.40;35.36
38026;BME280;23836;48.430;9.888;2022-08-21T12:35:18;95031.72;;;27.28;36.61
38026;BME280;23836;48.430;9.888;2022-08-21T12:45:19;95066.78;;;26.16;39.46
38026;BME280;23836;48.430;9.888;2022-08-21T12:50:18;95064.84;;;26.16;39.30
38026;BME280;23836;48.430;9.888;2022-08-21T12:55:15;95072.09;;;26.12;39.80
38026;BME280;23836;48.430;9.888;2022-08-21T13:00:10;95060.41;;;26.12;39.14
38026;BME280;23836;48.430;9.888;2022-08-21T13:05:06;95066.03;;;26.44;41.06
38026;BME280;23836;48.430;9.888;2022-08-21T13:15:09;95019.59;;;26.15;38.44
38026;BME280;23836;48.430;9.888;2022-08-21T13:20:05;95058.81;;;26.11;40.61
38026;BME280;23836;48.430;9.888;2022-08-21T13:24:56;95051.66;;;26.06;39.45
38026;BME280;23836;48.430;9.888;2022-08-21T13:29:46;95058.03;;;25.98;40.76
38026;BME280;23836;48.430;9.888;2022-08-21T13:34:38;95020.03;;;25.56;40.94
38026;BME280;23836;48.430;9.888;2022-08-21T13:39:28;95035.03;;;25.62;43.81
38026;BME280;23836;48.430;9.888;2022-08-21T13:44:31;95029.13;;;25.60;43.78
38026;BME280;23836;48.430;9.888;2022-08-21T13:49:35;95000.69;;;25.24;41.17
38026;BME280;23836;48.430;9.888;2022-08-21T13:54:29;95004.16;;;25.33;41.83
38026;BME280;23836;48.430;9.888;2022-08-21T14:04:25;95059.53;;;25.37;42.75
38026;BME280;23836;48.430;9.888;2022-08-21T14:15:04;95054.75;;;25.34;41.48
38026;BME280;23836;48.430;9.888;2022-08-21T14:19:55;95060.03;;;24.85;42.80
38026;BME280;23836;48.430;9.888;2022-08-21T14:24:46;95057.78;;;24.45;45.19
38026;BME280;23836;48.430;9.888;2022-08-21T14:29:38;95063.00;;;24.50;46.28
38026;BME280;23836;48.430;9.888;2022-08-21T14:34:29;95045.56;;;24.30;46.78
38026;BME280;23836;48.430;9.888;2022-08-21T14:39:20;95021.06;;;23.79;46.09
38026;BME280;23836;48.430;9.888;2022-08-21T14:44:10;94991.16;;;24.09;45.53
38026;BME280;23836;48.430;9.888;2022-08-21T14:49:04;94975.44;;;24.35;44.27
38026;BME280;23836;48.430;9.888;2022-08-21T14:53:54;94987.03;;;24.45;42.81
38026;BME280;23836;48.430;9.888;2022-08-21T14:58:47;95003.91;;;24.38;44.85
38026;BME280;23836;48.430;9.888;2022-08-21T15:03:46;95033.22;;;24.74;45.46
38026;BME280;23836;48.430;9.888;2022-08-21T15:08:38;95006.16;;;25.24;44.98
38026;BME280;23836;48.430;9.888;2022-08-21T15:13:29;95024.03;;;25.58;40.64
38026;BME280;23836;48.430;9.888;2022-08-21T15:18:21;94942.81;;;25.15;42.66
38026;BME280;23836;48.430;9.888;2022-08-21T15:23:11;95033.19;;;24.96;45.36
38026;BME280;23836;48.430;9.888;2022-08-21T15:28:03;95025.00;;;24.62;44.76
38026;BME280;23836;48.430;9.888;2022-08-21T15:32:53;94989.31;;;24.00;45.35
38026;BME280;23836;48.430;9.888;2022-08-21T15:37:44;94975.91;;;23.95;47.14
38026;BME280;23836;48.430;9.888;2022-08-21T15:42:34;95017.09;;;24.27;46.70
38026;BME280;23836;48.430;9.888;2022-08-21T15:47:30;94947.41;;;24.01;49.85
38026;BME280;23836;48.430;9.888;2022-08-21T15:52:22;94999.31;;;24.51;47.86
38026;BME280;23836;48.430;9.888;2022-08-21T15:57:16;94955.88;;;24.21;50.82
38026;BME280;23836;48.430;9.888;2022-08-21T16:02:14;94940.75;;;23.90;49.35
38026;BME280;23836;48.430;9.888;2022-08-21T16:07:05;94999.50;;;24.03;50.88
38026;BME280;23836;48.430;9.888;2022-08-21T16:11:55;94949.38;;;23.92;47.96
38026;BME280;23836;48.430;9.888;2022-08-21T16:16:46;94996.22;;;24.19;47.19
38026;BME280;23836;48.430;9.888;2022-08-21T16:21:36;94927.50;;;23.89;48.78
38026;BME280;23836;48.430;9.888;2022-08-21T16:26:28;94985.72;;;23.88;47.21
38026;BME280;23836;48.430;9.888;2022-08-21T16:31:19;94972.75;;;23.55;51.17
38026;BME280;23836;48.430;9.888;2022-08-21T16:36:10;94968.28;;;23.59;50.83
38026;BME280;23836;48.430;9.888;2022-08-21T16:41:00;94965.22;;;23.60;49.50
38026;BME280;23836;48.430;9.888;2022-08-21T16:45:52;94989.88;;;23.85;52.27
38026;BME280;23836;48.430;9.888;2022-08-21T16:50:43;94919.13;;;23.43;52.61
38026;BME280;23836;48.430;9.888;2022-08-21T16:55:35;94935.25;;;23.48;53.73
38026;BME280;23836;48.430;9.888;2022-08-21T17:00:26;94914.44;;;23.22;54.27
38026;BME280;23836;48.430;9.888;2022-08-21T17:05:16;94954.19;;;23.27;48.94
38026;BME280;23836;48.430;9.888;2022-08-21T17:10:08;94980.50;;;23.35;51.91
38026;BME280;23836;48.430;9.888;2022-08-21T17:15:07;94983.13;;;23.23;52.17
38026;BME280;23836;48.430;9.888;2022-08-21T17:19:57;94927.66;;;22.85;52.45
38026;BME280;23836;48.430;9.888;2022-08-21T17:24:48;94906.66;;;22.65;52.12
38026;BME280;23836;48.430;9.888;2022-08-21T17:29:39;94986.53;;;23.02;51.44
38026;BME280;23836;48.430;9.888;2022-08-21T17:34:30;94976.78;;;22.92;51.62
38026;BME280;23836;48.430;9.888;2022-08-21T17:39:20;94931.56;;;22.49;53.73
38026;BME280;23836;48.430;9.888;2022-08-21T17:44:11;94950.22;;;22.59;53.29
38026;BME280;23836;48.430;9.888;2022-08-21T17:49:05;94947.22;;;22.52;55.55
38026;BME280;23836;48.430;9.888;2022-08-21T17:53:55;94861.78;;;21.85;55.72
38026;BME280;23836;48.430;9.888;2022-08-21T17:58:48;94952.94;;;22.24;57.79
38026;BME280;23836;48.430;9.888;2022-08-21T18:03:39;94987.56;;;22.27;60.33
38026;BME280;23836;48.430;9.888;2022-08-21T18:08:30;94978.63;;;22.18;58.30
38026;BME280;23836;48.430;9.888;2022-08-21T18:13:24;94985.63;;;22.02;56.23
38026;BME280;23836;48.430;9.888;2022-08-21T18:18:16;94846.81;;;20.86;57.28
38026;BME280;23836;48.430;9.888;2022-08-21T18:23:07;94997.38;;;21.71;57.83
38026;BME280;23836;48.430;9.888;2022-08-21T18:28:02;94952.09;;;21.14;57.08
38026;BME280;23836;48.430;9.888;2022-08-21T18:32:53;94908.34;;;20.80;58.55
38026;BME280;23836;48.430;9.888;2022-08-21T18:37:44;95006.13;;;21.28;58.20
38026;BME280;23836;48.430;9.888;2022-08-21T18:42:43;95007.03;;;21.14;58.73
38026;BME280;23836;48.430;9.888;2022-08-21T18:47:40;94943.97;;;20.51;60.07
38026;BME280;23836;48.430;9.888;2022-08-21T18:52:30;95009.53;;;20.79;61.96
38026;BME280;23836;48.430;9.888;2022-08-21T18:57:27;95005.31;;;20.64;64.04
38026;BME280;23836;48.430;9.888;2022-08-21T19:02:17;95008.13;;;20.59;63.00
38026;BME280;23836;48.430;9.888;2022-08-21T19:07:08;94977.47;;;20.19;64.43
38026;BME280;23836;48.430;9.888;2022-08-21T19:11:59;94978.34;;;19.91;66.17
38026;BME280;23836;48.430;9.888;2022-08-21T19:16:52;94989.44;;;19.90;65.63
38026;BME280;23836;48.430;9.888;2022-08-21T19:21:43;94994.56;;;19.77;66.95
38026;BME280;23836;48.430;9.888;2022-08-21T19:26:34;94989.34;;;19.67;65.88
38026;BME280;23836;48.430;9.888;2022-08-21T19:31:28;94985.34;;;19.51;66.54
38026;BME280;23836;48.430;9.888;2022-08-21T19:36:20;94984.50;;;18.81;68.97
38026;BME280;23836;48.430;9.888;2022-08-21T19:41:13;95040.06;;;19.42;66.64
38026;BME280;23836;48.430;9.888;2022-08-21T19:46:04;95041.16;;;19.41;68.83
38026;BME280;23836;48.430;9.888;2022-08-21T19:50:55;94981.78;;;19.14;67.81
38026;BME280;23836;48.430;9.888;2022-08-21T19:55:46;95026.75;;;19.32;69.26
38026;BME280;23836;48.430;9.888;2022-08-21T20:05:57;95041.09;;;19.00;70.84
38026;BME280;23836;48.430;9.888;2022-08-21T20:10:51;95043.25;;;18.84;72.02
38026;BME280;23836;48.430;9.888;2022-08-21T20:15:43;94985.25;;;18.34;72.60
38026;BME280;23836;48.430;9.888;2022-08-21T20:43:31;95050.91;;;18.25;76.10
38026;BME280;23836;48.430;9.888;2022-08-21T20:48:28;95044.03;;;18.32;75.65
38026;BME280;23836;48.430;9.888;2022-08-21T21:09:23;95049.06;;;18.20;75.61
38026;BME280;23836;48.430;9.888;2022-08-21T21:14:23;95042.28;;;18.04;74.10
38026;BME280;23836;48.430;9.888;2022-08-21T21:19:19;95046.09;;;18.03;74.76
38026;BME280;23836;48.430;9.888;2022-08-21T21:24:21;95040.19;;;18.00;74.99
38026;BME280;23836;48.430;9.888;2022-08-21T21:34:02;95045.56;;;18.00;75.28
38026;BME280;23836;48.430;9.888;2022-08-21T21:39:02;95043.31;;;17.89;74.26
38026;BME280;23836;48.430;9.888;2022-08-21T21:44:11;95060.34;;;17.79;75.35
38026;BME280;23836;48.430;9.888;2022-08-21T21:49:27;95045.88;;;17.75;74.64
38026;BME280;23836;48.430;9.888;2022-08-21T21:59:52;95001.13;;;17.36;75.02
38026;BME280;23836;48.430;9.888;2022-08-21T22:05:14;95044.19;;;17.60;75.46
38026;BME280;23836;48.430;9.888;2022-08-21T22:10:16;94978.81;;;17.11;76.36
38026;BME280;23836;48.430;9.888;2022-08-21T22:15:10;95054.13;;;17.59;76.60
38026;BME280;23836;48.430;9.888;2022-08-21T22:20:07;95054.13;;;17.59;75.95
38026;BME280;23836;48.430;9.888;2022-08-21T22:25:06;95057.47;;;17.51;73.37
38026;BME280;23836;48.430;9.888;2022-08-21T22:30:07;94984.13;;;16.92;74.74
38026;BME280;23836;48.430;9.888;2022-08-21T22:35:22;95058.72;;;17.35;74.80
38026;BME280;23836;48.430;9.888;2022-08-21T22:40:20;95060.44;;;17.25;76.58
38026;BME280;23836;48.430;9.888;2022-08-21T22:45:19;95056.66;;;17.26;74.43
38026;BME280;23836;48.430;9.888;2022-08-21T22:55:23;95063.28;;;17.10;76.86
38026;BME280;23836;48.430;9.888;2022-08-21T23:00:34;95065.97;;;17.10;75.68
38026;BME280;23836;48.430;9.888;2022-08-21T23:10:23;95059.13;;;16.93;75.26
38026;BME280;23836;48.430;9.888;2022-08-21T23:15:15;95032.97;;;16.70;74.62
38026;BME280;23836;48.430;9.888;2022-08-21T23:20:24;95039.13;;;16.70;75.04
38026;BME280;23836;48.430;9.888;2022-08-21T23:40:49;95006.28;;;16.49;75.50
38026;BME280;23836;48.430;9.888;2022-08-21T23:51:03;95038.41;;;16.59;75.80
38026;BME280;23836;48.430;9.888;2022-08-21T23:56:08;95039.09;;;16.41;76.92
